createdAt,value
2023-03-19T00:01:13.186Z,15.20
2023-03-19T00:03:42.698Z,15.20
2023-03-19T00:06:09.666Z,15.10
2023-03-19T00:08:38.859Z,15.20
2023-03-19T00:11:08.523Z,15.10
2023-03-19T00:13:38.554Z,15.10
2023-03-19T00:16:08.244Z,15.10
2023-03-19T00:18:35.257Z,15.10
2023-03-19T00:21:05.745Z,15.10
2023-03-19T00:23:32.897Z,15.10
2023-03-19T00:26:05.601Z,15.10
2023-03-19T00:28:32.883Z,15.10
2023-03-19T00:31:09.701Z,15.10
2023-03-19T00:33:37.165Z,15.10
2023-03-19T00:36:10.904Z,15.00
2023-03-19T00:38:38.726Z,15.10
2023-03-19T00:41:08.804Z,15.00
2023-03-19T00:43:36.462Z,15.00
2023-03-19T00:46:04.343Z,15.00
2023-03-19T00:48:33.334Z,15.00
2023-03-19T00:51:09.133Z,14.90
2023-03-19T00:53:43.664Z,14.90
2023-03-19T00:56:13.295Z,14.90
2023-03-19T00:58:45.351Z,14.90
2023-03-19T01:01:25.163Z,14.90
2023-03-19T01:03:54.154Z,14.90
2023-03-19T01:06:21.054Z,14.90
2023-03-19T01:08:47.867Z,14.90
2023-03-19T01:11:17.223Z,14.90
2023-03-19T01:13:44.495Z,14.90
2023-03-19T01:16:11.513Z,14.90
2023-03-19T01:18:41.078Z,14.90
2023-03-19T01:21:08.421Z,14.90
2023-03-19T01:23:37.844Z,14.90
2023-03-19T01:26:05.337Z,14.90
2023-03-19T01:28:32.286Z,14.90
2023-03-19T01:31:01.891Z,14.90
2023-03-19T01:33:31.466Z,14.90
2023-03-19T01:35:59.453Z,14.90
2023-03-19T01:38:26.357Z,14.90
2023-03-19T01:40:55.460Z,14.90
2023-03-19T01:43:29.040Z,14.90
2023-03-19T01:46:13.227Z,14.90
2023-03-19T01:48:45.238Z,14.90
2023-03-19T01:51:17.526Z,14.90
2023-03-19T01:53:52.704Z,14.90
2023-03-19T01:56:41.488Z,14.80
2023-03-19T01:59:21.325Z,14.80
2023-03-19T02:01:59.622Z,14.80
2023-03-19T02:04:31.923Z,14.80
2023-03-19T02:07:01.223Z,14.80
2023-03-19T02:09:31.928Z,14.70
2023-03-19T02:12:03.142Z,14.70
2023-03-19T02:14:32.566Z,14.70
2023-03-19T02:17:02.534Z,14.60
2023-03-19T02:19:48.595Z,14.60
2023-03-19T02:22:22.699Z,14.60
2023-03-19T02:25:22.238Z,14.60
2023-03-19T02:27:49.232Z,14.50
2023-03-19T02:30:25.687Z,14.60
2023-03-19T02:32:57.215Z,14.50
2023-03-19T02:35:27.128Z,14.50
2023-03-19T02:37:56.302Z,14.40
2023-03-19T02:40:31.916Z,14.50
2023-03-19T02:42:58.974Z,14.50
2023-03-19T02:45:32.296Z,14.50
2023-03-19T02:48:01.559Z,14.40
2023-03-19T02:50:28.509Z,14.40
2023-03-19T02:52:58.404Z,14.40
2023-03-19T02:55:28.530Z,14.40
2023-03-19T02:57:55.448Z,14.40
2023-03-19T03:00:22.413Z,14.40
2023-03-19T03:02:51.576Z,14.40
2023-03-19T03:05:21.544Z,14.40
2023-03-19T03:07:53.982Z,14.40
2023-03-19T03:10:20.944Z,14.40
2023-03-19T03:12:47.870Z,14.40
2023-03-19T03:15:15.007Z,14.40
2023-03-19T03:17:45.840Z,14.40
2023-03-19T03:20:17.713Z,14.40
2023-03-19T03:22:47.198Z,14.40
2023-03-19T03:25:19.151Z,14.40
2023-03-19T03:27:48.762Z,14.40
2023-03-19T03:30:18.991Z,14.30
2023-03-19T03:32:48.310Z,14.30
2023-03-19T03:35:21.868Z,14.30
2023-03-19T03:37:52.197Z,14.30
2023-03-19T03:40:22.043Z,14.30
2023-03-19T03:42:51.474Z,14.30
2023-03-19T03:45:18.945Z,14.30
2023-03-19T03:47:46.198Z,14.30
2023-03-19T03:50:13.836Z,14.30
2023-03-19T03:52:47.923Z,14.30
2023-03-19T03:55:14.956Z,14.30
2023-03-19T03:57:41.842Z,14.30
2023-03-19T04:00:09.888Z,14.30
2023-03-19T04:02:36.832Z,14.30
2023-03-19T04:05:09.223Z,14.30
2023-03-19T04:07:38.506Z,14.30
2023-03-19T04:10:07.612Z,14.30
2023-03-19T04:12:37.979Z,14.30
2023-03-19T04:15:07.726Z,14.30
2023-03-19T04:17:37.166Z,14.30
2023-03-19T04:20:05.617Z,14.30
2023-03-19T04:22:33.468Z,14.30
2023-03-19T04:25:02.721Z,14.30
2023-03-19T04:27:29.582Z,14.30
2023-03-19T04:29:59.013Z,14.20
2023-03-19T04:32:26.000Z,14.20
2023-03-19T04:34:56.194Z,14.20
2023-03-19T04:37:25.202Z,14.20
2023-03-19T04:39:52.075Z,14.20
2023-03-19T04:42:21.495Z,14.20
2023-03-19T04:44:48.677Z,14.10
2023-03-19T04:47:15.623Z,14.10
2023-03-19T04:49:42.484Z,14.10
2023-03-19T04:52:09.463Z,14.10
2023-03-19T04:54:38.697Z,14.10
2023-03-19T04:57:05.762Z,14.10
2023-03-19T04:59:32.682Z,14.00
2023-03-19T05:01:59.609Z,14.00
2023-03-19T05:04:28.622Z,14.00
2023-03-19T05:06:55.612Z,14.00
2023-03-19T05:09:22.466Z,13.90
2023-03-19T05:11:56.572Z,13.90
2023-03-19T05:14:26.439Z,13.90
2023-03-19T05:16:53.263Z,13.80
2023-03-19T05:19:22.531Z,13.80
2023-03-19T05:21:54.015Z,13.80
2023-03-19T05:24:23.182Z,13.80
2023-03-19T05:26:50.687Z,13.70
2023-03-19T05:29:24.674Z,13.70
2023-03-19T05:31:54.214Z,13.70
2023-03-19T05:34:27.099Z,13.80
2023-03-19T05:36:54.009Z,13.80
2023-03-19T05:39:23.410Z,13.80
2023-03-19T05:41:52.797Z,13.70
2023-03-19T05:44:19.991Z,13.80
2023-03-19T05:46:49.190Z,13.80
2023-03-19T05:49:16.197Z,13.80
2023-03-19T05:51:45.660Z,13.80
2023-03-19T05:54:14.774Z,13.80
2023-03-19T05:56:46.337Z,13.80
2023-03-19T05:59:15.596Z,13.80
2023-03-19T06:01:42.672Z,13.60
2023-03-19T06:04:14.579Z,13.70
2023-03-19T06:06:43.553Z,13.70
2023-03-19T06:09:10.443Z,13.80
2023-03-19T06:11:39.502Z,13.70
2023-03-19T06:14:09.602Z,13.80
2023-03-19T06:16:39.202Z,13.80
2023-03-19T06:19:08.612Z,13.80
2023-03-19T06:21:37.703Z,13.70
2023-03-19T06:24:07.244Z,13.80
2023-03-19T06:26:41.320Z,13.80
2023-03-19T06:29:11.427Z,13.70
2023-03-19T06:31:40.012Z,13.80
2023-03-19T06:34:07.367Z,13.70
2023-03-19T06:36:34.262Z,13.80
2023-03-19T06:39:01.595Z,13.80
2023-03-19T06:41:28.532Z,13.80
2023-03-19T06:43:55.456Z,13.80
2023-03-19T06:46:22.453Z,13.80
2023-03-19T06:48:49.433Z,13.80
2023-03-19T06:51:16.309Z,13.80
2023-03-19T06:53:43.137Z,13.80
2023-03-19T06:56:12.562Z,13.80
2023-03-19T06:58:39.476Z,13.80
2023-03-19T07:01:09.350Z,13.80
2023-03-19T07:03:36.333Z,13.90
2023-03-19T07:06:07.755Z,13.90
2023-03-19T07:08:34.665Z,13.90
2023-03-19T07:11:06.985Z,13.90
2023-03-19T07:13:38.417Z,14.00
2023-03-19T07:16:06.110Z,14.00
2023-03-19T07:18:35.587Z,14.00
2023-03-19T07:21:04.834Z,14.10
2023-03-19T07:23:34.283Z,14.10
2023-03-19T07:26:03.762Z,14.10
2023-03-19T07:28:31.217Z,14.10
2023-03-19T07:31:00.254Z,14.20
2023-03-19T07:33:29.412Z,14.20
2023-03-19T07:35:58.631Z,14.30
2023-03-19T07:38:28.078Z,14.30
2023-03-19T07:41:01.977Z,14.40
2023-03-19T07:43:31.314Z,14.40
2023-03-19T07:46:00.894Z,14.50
2023-03-19T07:48:30.700Z,14.50
2023-03-19T07:50:57.724Z,14.50
2023-03-19T07:53:27.369Z,14.60
2023-03-19T07:55:54.379Z,14.60
2023-03-19T07:58:23.990Z,14.70
2023-03-19T08:00:51.054Z,14.70
2023-03-19T08:03:17.908Z,14.80
2023-03-19T08:05:49.996Z,14.80
2023-03-19T08:08:17.556Z,14.90
2023-03-19T08:10:47.982Z,14.90
2023-03-19T08:13:17.355Z,15.00
2023-03-19T08:15:44.296Z,15.00
2023-03-19T08:18:11.410Z,15.10
2023-03-19T08:20:38.291Z,15.10
2023-03-19T08:23:05.253Z,15.20
2023-03-19T08:25:37.685Z,15.20
2023-03-19T08:28:09.766Z,15.20
2023-03-19T08:30:40.036Z,15.30
2023-03-19T08:33:07.084Z,15.30
2023-03-19T08:35:38.826Z,15.30
2023-03-19T08:38:05.872Z,15.30
2023-03-19T08:40:34.061Z,15.40
2023-03-19T08:43:06.813Z,15.40
2023-03-19T08:45:33.972Z,15.40
2023-03-19T08:48:04.011Z,15.40
2023-03-19T08:50:30.955Z,15.40
2023-03-19T08:53:00.888Z,15.50
2023-03-19T08:55:27.832Z,15.50
2023-03-19T08:57:57.308Z,15.50
2023-03-19T09:00:29.483Z,15.50
2023-03-19T09:02:56.418Z,15.50
2023-03-19T09:05:24.270Z,15.60
2023-03-19T09:07:54.126Z,15.60
2023-03-19T09:10:23.743Z,15.70
2023-03-19T09:12:50.668Z,16.00
2023-03-19T09:15:17.750Z,16.20
2023-03-19T09:17:49.374Z,16.50
2023-03-19T09:20:16.320Z,16.70
2023-03-19T09:22:48.105Z,16.90
2023-03-19T09:25:17.747Z,17.10
2023-03-19T09:27:44.732Z,17.20
2023-03-19T09:30:12.569Z,17.30
2023-03-19T09:32:42.045Z,17.40
2023-03-19T09:35:09.474Z,17.50
2023-03-19T09:37:36.474Z,17.60
2023-03-19T09:40:07.098Z,17.60
2023-03-19T09:42:52.543Z,17.60
2023-03-19T09:45:20.922Z,17.60
2023-03-19T09:47:57.003Z,17.60
2023-03-19T09:50:32.357Z,17.60
2023-03-19T09:53:08.507Z,17.60
2023-03-19T09:55:45.703Z,17.60
2023-03-19T09:58:28.356Z,17.60
2023-03-19T10:00:56.950Z,17.60
2023-03-19T10:04:06.135Z,17.70
2023-03-19T10:06:40.308Z,17.60
2023-03-19T10:09:38.819Z,17.70
2023-03-19T10:12:22.720Z,17.70
2023-03-19T10:15:25.631Z,17.70
2023-03-19T10:18:24.420Z,17.70
2023-03-19T10:21:19.738Z,17.80
2023-03-19T10:24:01.504Z,17.80
2023-03-19T10:26:37.559Z,17.80
2023-03-19T10:29:21.264Z,17.80
2023-03-19T10:31:53.842Z,17.90
2023-03-19T10:34:44.611Z,18.00
2023-03-19T10:37:28.800Z,18.10
2023-03-19T10:40:00.896Z,18.10
2023-03-19T10:42:49.298Z,18.30
2023-03-19T10:45:27.101Z,18.40
2023-03-19T10:47:56.563Z,18.40
2023-03-19T10:50:50.878Z,18.50
2023-03-19T10:53:17.642Z,18.60
2023-03-19T10:56:13.144Z,18.60
2023-03-19T10:59:03.920Z,18.60
2023-03-19T11:01:42.869Z,18.60
2023-03-19T11:04:29.692Z,18.60
2023-03-19T11:07:03.751Z,18.50
2023-03-19T11:09:40.986Z,18.60
2023-03-19T11:12:33.867Z,18.60
2023-03-19T11:15:07.480Z,18.60
2023-03-19T11:17:52.726Z,18.60
2023-03-19T11:20:34.283Z,18.60
2023-03-19T11:23:07.742Z,18.80
2023-03-19T11:25:42.058Z,18.60
2023-03-19T11:28:14.475Z,18.90
2023-03-19T11:30:53.385Z,19.00
2023-03-19T11:33:41.881Z,19.10
2023-03-19T11:36:16.708Z,19.20
2023-03-19T11:39:22.734Z,19.30
2023-03-19T11:42:29.706Z,19.30
2023-03-19T11:45:31.437Z,19.30
2023-03-19T11:49:08.691Z,19.40
2023-03-19T11:51:52.088Z,19.30
2023-03-19T11:54:30.753Z,19.40
2023-03-19T11:57:34.931Z,19.30
2023-03-19T12:00:39.377Z,19.30
2023-03-19T12:03:52.578Z,19.20
2023-03-19T12:06:45.862Z,19.10
2023-03-19T12:09:38.259Z,19.10
2023-03-19T12:12:36.967Z,19.00
2023-03-19T12:15:24.251Z,19.00
2023-03-19T12:17:59.557Z,19.00
2023-03-19T12:20:46.053Z,19.00
2023-03-19T12:23:44.586Z,19.00
2023-03-19T12:26:45.389Z,19.00
2023-03-19T12:29:27.070Z,18.90
2023-03-19T12:32:21.477Z,18.90
2023-03-19T12:34:55.984Z,18.70
2023-03-19T12:37:39.192Z,18.80
2023-03-19T12:40:24.064Z,18.80
2023-03-19T12:42:52.010Z,18.70
2023-03-19T12:45:41.298Z,18.70
2023-03-19T12:48:16.810Z,18.60
2023-03-19T12:50:52.499Z,18.60
2023-03-19T12:53:49.564Z,18.50
2023-03-19T12:56:34.562Z,18.50
2023-03-19T12:59:39.469Z,18.50
2023-03-19T13:02:22.954Z,18.50
2023-03-19T13:05:30.734Z,18.50
2023-03-19T13:08:02.465Z,18.50
2023-03-19T13:10:32.580Z,18.50
2023-03-19T13:13:14.894Z,18.50
2023-03-19T13:15:47.843Z,18.50
2023-03-19T13:18:32.483Z,18.50
2023-03-19T13:21:11.693Z,18.40
2023-03-19T13:23:44.130Z,18.40
2023-03-19T13:26:19.598Z,18.40
2023-03-19T13:29:10.762Z,18.50
2023-03-19T13:31:41.735Z,18.40
2023-03-19T13:34:29.974Z,18.50
2023-03-19T13:37:14.510Z,18.50
2023-03-19T13:39:42.909Z,18.50
2023-03-19T13:42:42.167Z,18.60
2023-03-19T13:45:38.355Z,18.60
2023-03-19T13:48:47.600Z,18.60
2023-03-19T13:51:21.792Z,18.70
2023-03-19T13:53:59.856Z,18.70
2023-03-19T13:56:32.400Z,18.80
2023-03-19T13:59:25.189Z,18.80
2023-03-19T14:01:52.315Z,18.80
2023-03-19T14:04:32.988Z,18.80
2023-03-19T14:07:14.938Z,18.90
2023-03-19T14:09:47.179Z,18.90
2023-03-19T14:12:20.571Z,18.90
2023-03-19T14:14:56.008Z,18.90
2023-03-19T14:17:30.130Z,18.90
2023-03-19T14:20:28.333Z,18.90
2023-03-19T14:23:09.234Z,18.90
2023-03-19T14:26:06.399Z,18.90
2023-03-19T14:28:33.268Z,18.90
2023-03-19T14:31:02.762Z,18.90
2023-03-19T14:33:43.715Z,19.00
2023-03-19T14:36:22.002Z,18.90
2023-03-19T14:39:31.684Z,18.90
2023-03-19T14:42:31.557Z,18.90
2023-03-19T14:45:32.081Z,18.90
2023-03-19T14:48:54.508Z,18.90
2023-03-19T14:52:04.614Z,18.90
2023-03-19T14:54:43.347Z,18.80
2023-03-19T14:57:21.441Z,18.80
2023-03-19T14:59:55.547Z,18.80
2023-03-19T15:02:44.657Z,18.80
2023-03-19T15:05:21.011Z,18.80
2023-03-19T15:07:53.490Z,18.80
2023-03-19T15:10:24.496Z,18.80
2023-03-19T15:13:25.534Z,18.80
2023-03-19T15:16:21.337Z,18.80
2023-03-19T15:18:49.674Z,18.80
2023-03-19T15:21:17.724Z,18.80
2023-03-19T15:23:50.673Z,18.80
2023-03-19T15:26:36.955Z,18.80
2023-03-19T15:29:11.676Z,18.70
2023-03-19T15:31:57.534Z,18.70
2023-03-19T15:34:31.219Z,18.80
2023-03-19T15:37:15.570Z,18.70
2023-03-19T15:39:50.372Z,18.70
2023-03-19T15:42:19.835Z,18.70
2023-03-19T15:45:17.471Z,18.70
2023-03-19T15:48:06.173Z,18.70
2023-03-19T15:50:42.403Z,18.60
2023-03-19T15:53:18.434Z,18.60
2023-03-19T15:55:48.602Z,18.60
2023-03-19T15:58:21.866Z,18.50
2023-03-19T16:00:49.338Z,18.60
2023-03-19T16:03:28.360Z,18.50
2023-03-19T16:06:06.973Z,18.50
2023-03-19T16:08:34.239Z,18.40
2023-03-19T16:11:40.531Z,18.50
2023-03-19T16:14:17.169Z,18.40
2023-03-19T16:16:48.459Z,18.40
2023-03-19T16:19:36.708Z,18.30
2023-03-19T16:22:24.815Z,18.20
2023-03-19T16:24:56.887Z,18.20
2023-03-19T16:27:38.273Z,18.20
2023-03-19T16:30:23.915Z,18.20
2023-03-19T16:32:59.604Z,18.10
2023-03-19T16:35:30.281Z,18.10
2023-03-19T16:38:28.292Z,18.00
2023-03-19T16:41:24.302Z,18.00
2023-03-19T16:43:54.331Z,18.00
2023-03-19T16:46:23.990Z,17.90
2023-03-19T16:48:53.884Z,17.90
2023-03-19T16:51:25.398Z,17.90
2023-03-19T16:53:52.430Z,17.80
2023-03-19T16:56:19.918Z,17.60
2023-03-19T16:58:49.657Z,17.60
2023-03-19T17:01:23.067Z,17.50
2023-03-19T17:03:54.028Z,17.50
2023-03-19T17:06:25.161Z,17.40
2023-03-19T17:08:52.157Z,17.30
2023-03-19T17:11:31.208Z,17.20
2023-03-19T17:14:01.880Z,17.20
2023-03-19T17:16:31.587Z,17.10
2023-03-19T17:18:59.721Z,17.00
2023-03-19T17:21:31.269Z,16.90
2023-03-19T17:24:21.667Z,16.80
2023-03-19T17:26:48.977Z,16.70
2023-03-19T17:29:20.175Z,16.70
2023-03-19T17:31:48.114Z,16.60
2023-03-19T17:34:27.111Z,16.50
2023-03-19T17:37:04.119Z,16.40
2023-03-19T17:39:34.137Z,16.40
2023-03-19T17:42:00.979Z,16.30
2023-03-19T17:44:30.546Z,16.20
2023-03-19T17:46:57.580Z,16.10
2023-03-19T17:49:32.410Z,16.10
2023-03-19T17:52:00.113Z,16.00
2023-03-19T17:54:29.383Z,16.00
2023-03-19T17:56:58.669Z,15.90
2023-03-19T17:59:32.608Z,15.80
2023-03-19T18:02:01.850Z,15.80
2023-03-19T18:04:31.356Z,15.70
2023-03-19T18:06:58.292Z,15.70
2023-03-19T18:09:32.766Z,15.60
2023-03-19T18:12:02.050Z,15.50
2023-03-19T18:14:31.224Z,15.50
2023-03-19T18:17:00.609Z,15.40
2023-03-19T18:19:29.802Z,15.40
2023-03-19T18:21:56.737Z,15.40
2023-03-19T18:24:26.117Z,15.30
2023-03-19T18:26:55.637Z,15.30
2023-03-19T18:29:24.917Z,15.30
2023-03-19T18:31:53.701Z,15.30
2023-03-19T18:34:20.903Z,15.20
2023-03-19T18:36:51.016Z,15.20
2023-03-19T18:39:22.598Z,15.20
2023-03-19T18:41:49.649Z,15.10
2023-03-19T18:44:18.605Z,15.00
2023-03-19T18:46:45.651Z,15.00
2023-03-19T18:49:21.668Z,15.00
2023-03-19T18:52:02.304Z,15.00
2023-03-19T18:54:33.226Z,15.00
2023-03-19T18:57:04.131Z,15.00
2023-03-19T18:59:33.499Z,15.00
2023-03-19T19:02:17.609Z,14.90
2023-03-19T19:04:44.527Z,14.90
2023-03-19T19:07:17.358Z,14.90
2023-03-19T19:09:49.807Z,14.80
2023-03-19T19:12:18.696Z,14.80
2023-03-19T19:14:46.266Z,14.80
2023-03-19T19:17:23.262Z,14.80
2023-03-19T19:19:52.322Z,14.70
2023-03-19T19:22:20.301Z,14.70
2023-03-19T19:24:47.513Z,14.60
2023-03-19T19:27:27.052Z,14.60
2023-03-19T19:29:57.393Z,14.60
2023-03-19T19:32:30.839Z,14.60
2023-03-19T19:34:57.749Z,14.50
2023-03-19T19:37:29.347Z,14.50
2023-03-19T19:39:56.480Z,14.50
2023-03-19T19:42:23.931Z,14.30
2023-03-19T19:44:58.987Z,14.40
2023-03-19T19:47:27.075Z,14.40
2023-03-19T19:49:53.923Z,14.40
2023-03-19T19:52:21.147Z,14.40
2023-03-19T19:54:51.886Z,14.40
2023-03-19T19:57:24.446Z,14.40
2023-03-19T19:59:55.577Z,14.30
2023-03-19T20:02:28.920Z,14.30
2023-03-19T20:04:57.818Z,14.30
2023-03-19T20:07:24.820Z,14.30
2023-03-19T20:09:51.814Z,14.30
2023-03-19T20:12:26.634Z,14.20
2023-03-19T20:14:53.973Z,14.20
2023-03-19T20:17:21.216Z,14.20
2023-03-19T20:19:48.690Z,14.20
2023-03-19T20:22:16.387Z,14.10
2023-03-19T20:24:43.448Z,14.10
2023-03-19T20:27:22.609Z,14.10
2023-03-19T20:29:50.719Z,14.00
2023-03-19T20:32:37.800Z,14.00
2023-03-19T20:35:15.690Z,14.00
2023-03-19T20:37:42.678Z,14.00
2023-03-19T20:40:11.812Z,14.00
2023-03-19T20:42:39.690Z,13.90
2023-03-19T20:45:09.873Z,13.90
2023-03-19T20:47:37.188Z,13.90
2023-03-19T20:50:04.683Z,13.90
2023-03-19T20:52:33.878Z,13.90
2023-03-19T20:55:03.976Z,13.90
2023-03-19T20:57:33.650Z,13.80
2023-03-19T21:00:17.292Z,13.80
2023-03-19T21:02:44.167Z,13.80
2023-03-19T21:05:16.198Z,13.80
2023-03-19T21:07:46.827Z,13.80
2023-03-19T21:10:32.101Z,13.70
2023-03-19T21:13:01.787Z,13.70
2023-03-19T21:15:29.650Z,13.70
2023-03-19T21:17:57.398Z,13.60
2023-03-19T21:20:31.394Z,13.60
2023-03-19T21:23:28.159Z,13.60
2023-03-19T21:26:01.321Z,13.60
2023-03-19T21:28:36.563Z,13.50
2023-03-19T21:31:03.718Z,13.40
2023-03-19T21:33:35.546Z,13.40
2023-03-19T21:36:06.669Z,13.40
2023-03-19T21:38:33.719Z,13.30
2023-03-19T21:41:05.078Z,13.30
2023-03-19T21:43:41.529Z,13.30
2023-03-19T21:46:24.067Z,13.20
2023-03-19T21:48:55.188Z,13.20
2023-03-19T21:51:23.614Z,13.10
2023-03-19T21:53:53.107Z,13.10
2023-03-19T21:56:35.500Z,13.10
2023-03-19T21:59:19.608Z,13.00
2023-03-19T22:01:46.727Z,13.00
2023-03-19T22:04:13.885Z,13.00
2023-03-19T22:06:43.456Z,12.90
2023-03-19T22:09:10.619Z,12.90
2023-03-19T22:11:39.984Z,12.90
2023-03-19T22:14:30.132Z,12.80
2023-03-19T22:16:57.835Z,12.80
2023-03-19T22:19:30.315Z,12.80
2023-03-19T22:21:57.229Z,12.80
2023-03-19T22:24:24.115Z,12.80
2023-03-19T22:26:57.019Z,12.80
2023-03-19T22:29:29.077Z,12.80
2023-03-19T22:32:01.011Z,12.80
2023-03-19T22:34:28.486Z,12.80
2023-03-19T22:37:00.775Z,12.80
2023-03-19T22:39:27.625Z,12.80
2023-03-19T22:41:57.006Z,12.90
2023-03-19T22:44:31.296Z,12.90
2023-03-19T22:47:02.341Z,12.90
2023-03-19T22:49:32.195Z,12.90
2023-03-19T22:51:59.191Z,12.90
2023-03-19T22:54:28.839Z,12.90
2023-03-19T22:56:55.702Z,12.90
2023-03-19T22:59:25.446Z,12.90
2023-03-19T23:01:54.828Z,12.90
2023-03-19T23:04:25.402Z,12.90
2023-03-19T23:06:56.646Z,12.90
2023-03-19T23:09:26.080Z,12.90
2023-03-19T23:11:53.783Z,12.90
2023-03-19T23:14:29.501Z,12.90
2023-03-19T23:17:06.757Z,13.00
2023-03-19T23:19:36.930Z,13.00
2023-03-19T23:22:06.643Z,13.00
2023-03-19T23:24:35.218Z,13.00
2023-03-19T23:27:03.478Z,13.00
2023-03-19T23:29:34.927Z,13.00
2023-03-19T23:32:04.961Z,13.00
2023-03-19T23:34:35.310Z,12.90
2023-03-19T23:37:09.248Z,12.90
2023-03-19T23:39:36.964Z,12.90
2023-03-19T23:42:04.921Z,12.90
2023-03-19T23:44:36.931Z,12.90
2023-03-19T23:47:03.868Z,12.90
2023-03-19T23:49:32.963Z,12.90
2023-03-19T23:52:01.887Z,12.90
2023-03-19T23:54:37.766Z,12.90
2023-03-19T23:57:10.626Z,12.90
2023-03-19T23:59:40.450Z,12.90
